Time;durP1;ratioP1;P1;durP2;ratioP2;P2;SDS_P1;SDS_P2;PMS_P1;PMS_P2;Temp;Humidity;BMP_temperature;BMP_pressure;BME280_temperature;BME280_humidity;BME280_pressure;Samples;Min_cycle;Max_cycle;Signal;HPM_P1;HPM_P2
2022/10/10 00:02:24;;;;;;;8.98;6.15;;;;;;;6.38;88.96;101376.28;4932608;29;20043;-85
2022/10/10 00:04:51;;;;;;;11.18;5.95;;;;;;;6.38;89.37;101382.53;4917153;29;20082;-84
2022/10/10 00:07:18;;;;;;;10.93;6.40;;;;;;;6.35;89.23;101380.00;4932900;29;20050;-84
2022/10/10 00:09:44;;;;;;;10.13;6.10;;;;;;;6.37;89.82;101377.22;4929823;29;20042;-84
2022/10/10 00:12:10;;;;;;;10.90;5.85;;;;;;;6.33;89.12;101362.97;4932555;29;20139;-84
2022/10/10 00:14:35;;;;;;;10.70;6.47;;;;;;;6.34;88.89;101374.66;4916081;29;20046;-84
2022/10/10 00:17:01;;;;;;;10.55;6.32;;;;;;;6.30;88.73;101365.84;4931608;29;20381;-84
2022/10/10 00:19:26;;;;;;;10.00;6.50;;;;;;;6.32;89.17;101372.03;4916659;29;20096;-85
2022/10/10 00:21:51;;;;;;;8.85;6.20;;;;;;;6.31;89.13;101367.59;4932302;29;20103;-84
2022/10/10 00:24:17;;;;;;;11.80;6.57;;;;;;;6.24;89.37;101358.00;4914907;29;20098;-84
2022/10/10 00:26:42;;;;;;;12.48;6.22;;;;;;;6.30;88.78;101367.66;4930926;29;20468;-84
2022/10/10 00:29:08;;;;;;;8.23;6.03;;;;;;;6.24;88.94;101358.00;4913208;29;20470;-84
2022/10/10 00:31:33;;;;;;;9.70;5.50;;;;;;;6.26;89.06;101369.63;4913110;29;20028;-84
2022/10/10 00:33:58;;;;;;;9.15;5.85;;;;;;;6.20;88.86;101359.13;4913039;29;20522;-84
2022/10/10 00:36:24;;;;;;;10.98;6.85;;;;;;;6.24;88.94;101370.63;4897690;29;20032;-84
2022/10/10 00:38:49;;;;;;;13.27;6.45;;;;;;;6.23;89.20;101375.16;4915608;29;20080;-84
2022/10/10 00:41:14;;;;;;;9.13;6.35;;;;;;;6.22;88.78;101370.72;4914152;29;20368;-83
2022/10/10 00:43:40;;;;;;;10.82;6.88;;;;;;;6.22;89.87;101364.44;4929785;29;20024;-85
2022/10/10 00:46:05;;;;;;;12.38;6.85;;;;;;;6.19;89.46;101353.75;4913861;29;20123;-84
2022/10/10 00:48:43;;;;;;;8.25;5.93;;;;;;;6.17;89.06;101361.06;4914521;29;20115;-84
2022/10/10 00:51:15;;;;;;;11.80;6.30;;;;;;;6.18;89.93;101354.72;4899399;29;20046;-84
2022/10/10 00:53:46;;;;;;;11.80;5.82;;;;;;;6.09;88.84;101340.66;4914704;29;20044;-84
2022/10/10 00:56:14;;;;;;;10.63;6.40;;;;;;;6.10;89.09;101352.34;4914824;29;20135;-84
2022/10/10 00:58:43;;;;;;;17.52;6.38;;;;;;;6.05;88.74;101339.06;4929007;29;20110;-84
2022/10/10 01:01:09;;;;;;;11.35;6.13;;;;;;;6.02;89.09;101344.63;4898172;29;20083;-84
2022/10/10 01:03:35;;;;;;;9.05;5.88;;;;;;;6.05;88.67;101338.19;4929530;29;20036;-84
2022/10/10 01:06:00;;;;;;;9.27;5.97;;;;;;;6.05;89.10;101355.25;4897961;29;20126;-84
2022/10/10 01:08:26;;;;;;;9.68;6.05;;;;;;;6.03;89.20;101340.09;4915509;29;20036;-84
2022/10/10 01:11:12;;;;;;;9.82;6.22;;;;;;;6.00;89.36;101335.69;4923290;29;20036;-84
2022/10/10 01:13:47;;;;;;;10.18;6.35;;;;;;;6.00;89.06;101334.81;4916712;29;20406;-84
2022/10/10 01:16:39;;;;;;;7.93;5.78;;;;;;;5.99;88.82;101336.66;4933524;29;20047;-84
2022/10/10 01:19:31;;;;;;;9.88;6.60;;;;;;;5.96;89.06;101338.59;4932169;29;20040;-84
2022/10/10 01:22:21;;;;;;;11.60;6.10;;;;;;;5.94;88.87;101337.81;4918403;29;20036;-84
2022/10/10 01:25:30;;;;;;;8.48;6.47;;;;;;;5.92;88.89;101340.56;4925904;29;20476;-84
2022/10/10 01:28:20;;;;;;;13.10;6.50;;;;;;;5.92;88.98;101334.28;4892777;29;20498;-84
2022/10/10 01:30:47;;;;;;;10.73;6.65;;;;;;;5.88;89.10;101330.84;4912310;29;20510;-84
2022/10/10 01:33:26;;;;;;;9.68;5.80;;;;;;;5.88;88.66;101337.09;4918218;29;20032;-84
2022/10/10 01:36:08;;;;;;;13.40;6.22;;;;;;;5.86;89.91;101333.59;4931546;29;20036;-85
2022/10/10 01:38:52;;;;;;;11.05;6.13;;;;;;;5.83;89.24;101328.34;4922325;29;20468;-84
2022/10/10 01:41:24;;;;;;;9.57;6.07;;;;;;;5.83;89.39;101328.34;4914580;29;20179;-84
2022/10/10 01:43:55;;;;;;;14.43;6.95;;;;;;;5.81;89.69;101332.03;4915374;29;20435;-84
2022/10/10 01:46:20;;;;;;;8.40;6.00;;;;;;;5.76;90.05;101317.88;4947506;29;20035;-84
2022/10/10 01:48:49;;;;;;;14.57;5.70;;;;;;;5.71;90.12;101315.38;4933293;29;20498;-84
2022/10/10 01:51:46;;;;;;;16.15;6.15;;;;;;;5.74;90.02;101319.78;4915145;29;20396;-84
2022/10/10 01:54:19;;;;;;;11.00;6.80;;;;;;;5.69;90.76;101317.28;4930784;29;20071;-84
2022/10/10 01:56:56;;;;;;;9.05;5.70;;;;;;;5.66;89.39;101312.00;4931578;29;20032;-84
2022/10/10 01:59:32;;;;;;;10.70;6.60;;;;;;;5.66;90.25;101312.00;4930588;29;20044;-84
2022/10/10 02:02:10;;;;;;;10.75;6.13;;;;;;;5.65;90.12;101317.50;4914571;29;20058;-84
2022/10/10 02:04:56;;;;;;;9.55;6.35;;;;;;;5.63;89.86;101306.75;4930322;29;20044;-84
2022/10/10 02:07:41;;;;;;;10.43;5.93;;;;;;;5.58;89.52;101301.53;4930421;29;20510;-84
2022/10/10 02:10:07;;;;;;;9.75;6.18;;;;;;;5.58;90.37;101303.38;4941334;29;20071;-84
2022/10/10 02:12:35;;;;;;;11.68;6.50;;;;;;;5.60;90.34;101304.19;4922800;29;20054;-84
2022/10/10 02:15:10;;;;;;;10.30;6.53;;;;;;;5.59;90.05;101297.03;4929589;29;20038;-84
2022/10/10 02:17:38;;;;;;;10.70;6.55;;;;;;;5.58;90.95;101298.84;4913956;29;20172;-84
2022/10/10 02:20:06;;;;;;;11.35;6.57;;;;;;;5.53;90.38;101286.50;4926488;29;20032;-84
2022/10/10 02:22:33;;;;;;;12.10;6.78;;;;;;;5.55;90.75;101284.63;4941437;29;20040;-84
2022/10/10 02:24:59;;;;;;;12.95;7.07;;;;;;;5.55;90.54;101290.03;4929769;29;20047;-84
2022/10/10 02:27:33;;;;;;;9.88;6.45;;;;;;;5.54;91.27;101290.97;4928857;29;20559;-84
2022/10/10 02:30:01;;;;;;;11.40;6.40;;;;;;;5.54;90.61;101285.56;4918995;29;20047;-84
2022/10/10 02:33:02;;;;;;;9.88;6.13;;;;;;;5.53;90.54;101287.38;4929578;29;20079;-84
2022/10/10 02:35:32;;;;;;;10.48;6.45;;;;;;;5.51;91.17;101277.63;4923307;29;20487;-84
2022/10/10 02:38:01;;;;;;;11.05;6.43;;;;;;;5.46;90.63;101274.25;4930677;29;20676;-84
2022/10/10 02:40:30;;;;;;;8.82;6.35;;;;;;;5.49;91.15;101280.38;4929825;29;20043;-84
2022/10/10 02:42:59;;;;;;;10.80;7.47;;;;;;;5.47;92.15;101274.16;4916772;29;20150;-84
2022/10/10 02:45:27;;;;;;;10.68;6.97;;;;;;;5.50;92.63;101273.13;4929520;29;20039;-84
2022/10/10 02:47:53;;;;;;;12.77;6.85;;;;;;;5.52;92.86;101266.75;4930410;29;20095;-84
2022/10/10 02:50:19;;;;;;;15.88;6.45;;;;;;;5.49;92.07;101261.47;4929694;29;20051;-84
2022/10/10 02:52:45;;;;;;;9.55;5.90;;;;;;;5.49;91.78;101258.78;4930508;29;20031;-85
2022/10/10 02:55:10;;;;;;;11.63;6.07;;;;;;;5.53;92.34;101262.22;4914976;29;20405;-84
2022/10/10 02:57:35;;;;;;;16.80;6.72;;;;;;;5.51;92.24;101258.72;4913545;29;20045;-84
2022/10/10 03:00:02;;;;;;;14.60;6.72;;;;;;;5.55;92.19;101263.91;4918617;29;20071;-84
2022/10/10 03:02:27;;;;;;;10.32;6.22;;;;;;;5.56;92.21;101259.41;4913924;29;20114;-84
2022/10/10 03:04:52;;;;;;;10.30;6.82;;;;;;;5.58;93.05;101257.50;4913864;29;20494;-84
2022/10/10 03:07:18;;;;;;;10.95;6.10;;;;;;;5.51;91.89;101243.41;4914134;29;20414;-84
2022/10/10 03:09:43;;;;;;;11.73;6.18;;;;;;;5.54;92.50;101258.56;4925206;29;20028;-84
2022/10/10 03:12:08;;;;;;;9.75;5.93;;;;;;;5.53;93.12;101249.59;4911703;29;20040;-84
2022/10/10 03:14:34;;;;;;;11.65;6.55;;;;;;;5.55;93.71;101249.56;4921530;29;20076;-84
2022/10/10 03:16:59;;;;;;;13.02;6.28;;;;;;;5.58;93.69;101252.09;4930196;29;20031;-84
2022/10/10 03:19:25;;;;;;;14.85;6.55;;;;;;;5.61;93.79;101252.84;4929813;29;20087;-84
2022/10/10 03:21:50;;;;;;;13.63;6.68;;;;;;;5.65;94.30;101244.63;4929640;29;20040;-84
2022/10/10 03:24:16;;;;;;;10.13;6.97;;;;;;;5.67;94.50;101245.41;4929134;29;20039;-85
2022/10/10 03:26:41;;;;;;;13.13;6.63;;;;;;;5.70;94.71;101243.44;4914187;29;20032;-84
2022/10/10 03:29:06;;;;;;;13.75;6.32;;;;;;;5.73;93.75;101246.00;4928842;29;20122;-84
2022/10/10 03:31:32;;;;;;;9.85;6.70;;;;;;;5.79;93.86;101237.63;4945720;29;20039;-84
2022/10/10 03:33:58;;;;;;;11.73;5.90;;;;;;;5.89;95.13;101243.47;4928716;29;20063;-84
2022/10/10 03:36:23;;;;;;;8.68;5.90;;;;;;;5.93;94.93;101246.94;4929950;29;20036;-84
2022/10/10 03:38:49;;;;;;;12.68;6.00;;;;;;;5.93;94.67;101241.56;4929749;29;20039;-84
2022/10/10 03:41:14;;;;;;;12.30;6.30;;;;;;;6.02;94.47;101246.53;4929501;29;20395;-84
2022/10/10 03:43:39;;;;;;;8.00;5.50;;;;;;;5.98;93.13;101248.47;4927520;29;20028;-85
2022/10/10 03:46:05;;;;;;;14.82;6.93;;;;;;;5.98;92.92;101253.00;4898073;29;20050;-84
2022/10/10 03:48:30;;;;;;;11.52;5.50;;;;;;;5.92;93.77;101242.47;4899177;29;20047;-84
2022/10/10 03:50:56;;;;;;;12.88;6.53;;;;;;;5.95;94.66;101253.13;4913960;29;20485;-84
2022/10/10 03:53:21;;;;;;;10.48;6.20;;;;;;;5.97;93.37;101259.34;4916005;29;20066;-84
2022/10/10 03:55:46;;;;;;;11.43;7.07;;;;;;;5.93;94.45;101247.81;4920260;29;20539;-84
2022/10/10 03:58:12;;;;;;;11.15;5.88;;;;;;;5.90;92.71;101253.31;4930481;29;20415;-84
2022/10/10 04:00:38;;;;;;;9.80;5.90;;;;;;;5.88;94.90;101236.31;4932347;29;20099;-84
2022/10/10 04:03:05;;;;;;;8.27;6.03;;;;;;;5.93;94.22;101247.81;4930952;29;20495;-84
2022/10/10 04:05:36;;;;;;;12.60;5.97;;;;;;;5.96;94.75;101250.34;4932446;29;20443;-84
2022/10/10 04:08:02;;;;;;;10.85;6.20;;;;;;;6.03;95.14;101241.03;4916957;29;20510;-84
2022/10/10 04:10:28;;;;;;;9.30;5.97;;;;;;;6.04;94.61;101236.50;4914814;29;20467;-84
2022/10/10 04:12:54;;;;;;;11.95;7.57;;;;;;;6.09;94.89;101238.03;4931911;29;20063;-84
2022/10/10 04:15:19;;;;;;;10.07;6.10;;;;;;;6.14;94.56;101237.81;4915954;29;20542;-84
2022/10/10 04:17:44;;;;;;;11.10;6.30;;;;;;;6.17;95.08;101243.09;4932577;29;20035;-84
2022/10/10 04:20:10;;;;;;;11.20;7.13;;;;;;;6.29;96.28;101239.78;4916031;29;20036;-84
2022/10/10 04:22:35;;;;;;;11.40;5.90;;;;;;;6.33;95.91;101232.41;4932687;29;20090;-84
2022/10/10 04:25:01;;;;;;;13.05;5.63;;;;;;;6.37;94.89;101242.09;4931457;29;20039;-84
2022/10/10 04:27:26;;;;;;;10.02;5.60;;;;;;;6.36;95.16;101238.53;4930776;29;20357;-84
2022/10/10 04:29:51;;;;;;;9.77;5.93;;;;;;;6.36;95.16;101238.53;4930926;29;20094;-84
2022/10/10 04:32:17;;;;;;;11.68;7.75;;;;;;;6.38;94.65;101244.72;4931539;29;20550;-84
2022/10/10 04:34:42;;;;;;;7.90;5.78;;;;;;;6.37;95.21;101244.81;4932155;29;20036;-84
2022/10/10 04:37:07;;;;;;;14.00;6.03;;;;;;;6.36;95.06;101240.38;4931632;29;20066;-85
2022/10/10 04:39:33;;;;;;;11.20;5.95;;;;;;;6.32;94.47;101242.34;4932429;29;20039;-84
2022/10/10 04:41:58;;;;;;;10.23;6.20;;;;;;;6.35;94.77;101244.03;4931470;29;20655;-84
2022/10/10 04:44:24;;;;;;;10.45;5.90;;;;;;;6.32;95.01;101250.44;4930311;29;20402;-84
2022/10/10 04:46:49;;;;;;;10.05;6.57;;;;;;;6.31;95.24;101248.69;4916173;29;20514;-84
2022/10/10 04:49:14;;;;;;;10.95;5.65;;;;;;;6.24;94.38;101244.53;4931838;29;20035;-84
2022/10/10 04:51:40;;;;;;;12.68;5.88;;;;;;;6.21;94.25;101246.53;4931492;29;20032;-84
2022/10/10 04:54:05;;;;;;;16.60;6.82;;;;;;;6.17;95.35;101234.09;4931712;29;20047;-84
2022/10/10 04:56:30;;;;;;;12.02;5.57;;;;;;;6.17;94.84;101244.91;4898524;29;20024;-84
2022/10/10 04:58:56;;;;;;;11.65;6.40;;;;;;;6.12;95.06;101237.03;4930926;29;20043;-84
2022/10/10 05:01:21;;;;;;;13.85;6.00;;;;;;;6.11;94.52;101246.09;4931507;29;20372;-83
2022/10/10 05:03:46;;;;;;;11.80;5.38;;;;;;;6.05;94.47;101232.84;4921245;29;20070;-84
2022/10/10 05:06:12;;;;;;;9.43;5.68;;;;;;;6.05;95.09;101233.72;4932399;29;20031;-84
2022/10/10 05:08:37;;;;;;;12.38;6.45;;;;;;;5.99;95.38;101225.06;4933770;29;20043;-84
2022/10/10 05:11:03;;;;;;;13.52;6.60;;;;;;;5.99;95.01;101223.22;4931754;29;20070;-84
2022/10/10 05:13:28;;;;;;;9.02;5.50;;;;;;;5.99;95.27;101230.44;4916118;29;20415;-84
2022/10/10 05:15:53;;;;;;;8.70;5.75;;;;;;;5.97;95.27;101240.44;4931167;29;20122;-84
2022/10/10 05:18:20;;;;;;;10.27;5.82;;;;;;;5.91;95.54;101221.78;4932937;29;20035;-84
2022/10/10 05:20:49;;;;;;;12.18;6.18;;;;;;;5.91;95.39;101222.66;4931128;29;20043;-84
2022/10/10 05:23:15;;;;;;;12.85;5.70;;;;;;;5.94;95.86;101227.97;4916288;29;20044;-84
2022/10/10 05:25:49;;;;;;;10.30;5.72;;;;;;;5.93;95.51;101228.91;4912939;29;20040;-84
2022/10/10 05:28:14;;;;;;;9.57;5.05;;;;;;;5.91;95.96;101238.00;4926370;29;20066;-84
2022/10/10 05:30:40;;;;;;;13.45;6.68;;;;;;;5.92;95.88;101226.28;4931045;29;20573;-84
2022/10/10 05:33:05;;;;;;;11.93;6.00;;;;;;;5.92;95.90;101231.66;4932205;29;20043;-84
2022/10/10 05:35:31;;;;;;;10.90;6.35;;;;;;;5.91;95.93;101232.59;4914835;29;20034;-84
2022/10/10 05:37:56;;;;;;;10.73;5.43;;;;;;;5.92;95.99;101234.38;4929771;29;20031;-84
2022/10/10 05:40:22;;;;;;;10.90;5.80;;;;;;;5.95;96.70;101239.63;4915252;29;20060;-84
2022/10/10 05:42:47;;;;;;;10.30;5.93;;;;;;;5.95;96.83;101237.81;4946418;28;20037;-84
2022/10/10 05:45:12;;;;;;;11.02;5.28;;;;;;;5.94;96.55;101235.19;4932689;29;20161;-85
2022/10/10 05:47:38;;;;;;;9.10;5.55;;;;;;;5.89;96.01;101233.53;4932035;29;20464;-84
2022/10/10 05:50:04;;;;;;;7.28;5.30;;;;;;;5.95;96.48;101234.25;4940674;29;20376;-84
2022/10/10 05:52:30;;;;;;;14.43;6.05;;;;;;;5.95;96.79;101237.81;4929325;29;20024;-84
2022/10/10 05:54:55;;;;;;;10.95;5.75;;;;;;;6.00;97.24;101237.59;4943464;29;20051;-84
2022/10/10 05:57:20;;;;;;;13.43;7.00;;;;;;;6.02;97.35;101233.88;4944112;29;20038;-84
2022/10/10 05:59:46;;;;;;;8.35;5.43;;;;;;;6.00;96.76;101234.91;4944476;29;20110;-85
2022/10/10 06:02:13;;;;;;;13.60;6.55;;;;;;;6.05;97.30;101236.41;4945875;29;20112;-84
2022/10/10 06:04:38;;;;;;;13.43;6.78;;;;;;;6.06;97.34;101240.91;4943403;29;20044;-84
2022/10/10 06:07:03;;;;;;;12.38;6.57;;;;;;;6.09;97.78;101242.56;4911280;29;20038;-84
2022/10/10 06:09:29;;;;;;;10.45;6.05;;;;;;;6.09;97.90;101234.47;4911253;29;20035;-84
2022/10/10 06:11:54;;;;;;;12.65;6.32;;;;;;;6.16;98.46;101243.16;4930175;29;20535;-84
2022/10/10 06:14:19;;;;;;;12.95;7.20;;;;;;;6.17;98.28;101237.69;4929306;29;20042;-83
2022/10/10 06:16:45;;;;;;;20.55;6.63;;;;;;;6.22;98.39;101241.03;4929731;29;20036;-84
2022/10/10 06:19:10;;;;;;;14.98;7.07;;;;;;;6.23;98.58;101234.66;4945827;29;20019;-84
2022/10/10 06:21:36;;;;;;;14.13;7.95;;;;;;;6.35;99.21;101241.31;4946089;29;20364;-84
2022/10/10 06:24:01;;;;;;;17.35;6.93;;;;;;;6.39;99.03;101243.81;4942345;29;20040;-84
2022/10/10 06:26:26;;;;;;;10.90;6.65;;;;;;;6.52;98.85;101259.41;4928705;29;20504;-84
2022/10/10 06:28:52;;;;;;;10.10;7.15;;;;;;;6.57;99.29;101260.03;4943487;29;20139;-84
2022/10/10 06:31:17;;;;;;;9.65;6.07;;;;;;;6.61;98.68;101256.25;4928763;29;20574;-83
2022/10/10 06:33:44;;;;;;;11.50;6.95;;;;;;;6.66;99.19;101256.88;4944327;29;20090;-84
2022/10/10 06:36:11;;;;;;;18.65;7.05;;;;;;;6.75;99.56;101255.56;4945773;29;20050;-84
2022/10/10 06:38:38;;;;;;;15.35;7.38;;;;;;;6.80;99.55;101254.38;4930863;29;20031;-83
2022/10/10 06:41:04;;;;;;;14.95;6.43;;;;;;;6.89;99.58;101259.31;4928086;29;20522;-84
2022/10/10 06:43:30;;;;;;;25.75;7.57;;;;;;;6.94;99.26;101260.91;4942610;29;20111;-84
2022/10/10 06:45:56;;;;;;;13.35;6.93;;;;;;;6.93;99.02;101260.03;4928466;29;20479;-84
2022/10/10 06:48:22;;;;;;;15.55;7.55;;;;;;;6.99;98.83;101269.66;4913458;29;20090;-84
2022/10/10 06:51:04;;;;;;;12.35;6.35;;;;;;;7.00;98.69;101271.44;4943635;29;20098;-84
2022/10/10 06:53:31;;;;;;;14.30;6.75;;;;;;;7.02;98.37;101274.94;4942511;29;20044;-84
2022/10/10 06:55:57;;;;;;;13.98;6.60;;;;;;;7.08;98.76;101271.91;4932549;29;20040;-84
2022/10/10 06:58:25;;;;;;;13.15;6.63;;;;;;;7.19;98.85;101277.66;4909502;29;20051;-84
2022/10/10 07:00:55;;;;;;;15.80;6.97;;;;;;;7.23;98.93;101270.25;4929386;29;20032;-84
2022/10/10 07:03:20;;;;;;;15.75;7.88;;;;;;;7.27;98.68;101263.72;4945161;29;20047;-84
2022/10/10 07:05:51;;;;;;;11.80;6.60;;;;;;;7.51;98.86;101269.72;4945929;29;20554;-84
2022/10/10 07:08:17;;;;;;;15.10;7.50;;;;;;;7.76;97.74;101270.13;4926978;29;20074;-84
2022/10/10 07:10:42;;;;;;;9.02;6.35;;;;;;;8.00;97.47;101275.16;4942578;29;20495;-84
2022/10/10 07:13:08;;;;;;;10.30;6.40;;;;;;;8.08;96.63;101262.94;4896378;29;20039;-84
2022/10/10 07:15:33;;;;;;;18.65;7.68;;;;;;;8.24;96.01;101268.38;4924798;29;20451;-85
2022/10/10 07:17:59;;;;;;;14.00;6.53;;;;;;;8.30;96.53;101269.88;4913302;29;20542;-84
2022/10/10 07:20:26;;;;;;;13.23;6.97;;;;;;;8.53;95.36;101274.91;4946989;28;20036;-85
2022/10/10 07:22:51;;;;;;;14.80;6.50;;;;;;;8.74;95.17;101267.38;4946049;29;20494;-85
2022/10/10 07:25:16;;;;;;;11.15;6.90;;;;;;;9.31;93.48;101277.59;4921601;29;20067;-85
2022/10/10 07:27:42;;;;;;;14.43;7.13;;;;;;;9.43;92.93;101276.84;4925895;29;20079;-85
2022/10/10 07:30:08;;;;;;;15.32;6.88;;;;;;;9.44;92.45;101278.59;4948006;29;20118;-85
2022/10/10 07:32:33;;;;;;;13.98;6.30;;;;;;;9.47;92.17;101273.00;4948913;29;20038;-85
2022/10/10 07:34:58;;;;;;;16.75;6.28;;;;;;;9.41;92.37;101274.22;4946488;29;20575;-85
2022/10/10 07:37:24;;;;;;;9.10;6.05;;;;;;;9.41;92.62;101270.63;4949148;29;20533;-84
2022/10/10 07:39:51;;;;;;;10.60;6.60;;;;;;;9.39;93.24;101278.88;4927771;29;20044;-85
2022/10/10 07:42:17;;;;;;;12.07;7.15;;;;;;;9.45;93.32;101283.94;4916154;29;20083;-84
2022/10/10 07:44:43;;;;;;;12.68;7.15;;;;;;;9.55;93.74;101288.78;4916828;29;20404;-84
2022/10/10 07:47:08;;;;;;;14.20;6.35;;;;;;;9.67;93.13;101298.91;4949240;29;20162;-85
2022/10/10 07:49:34;;;;;;;13.25;7.05;;;;;;;9.78;93.01;101300.97;4946276;29;20133;-84
2022/10/10 07:51:59;;;;;;;11.65;6.55;;;;;;;9.83;92.91;101304.28;4947123;29;20047;-85
2022/10/10 07:54:25;;;;;;;15.90;7.22;;;;;;;9.93;92.85;101302.72;4914811;29;20028;-85
2022/10/10 07:56:50;;;;;;;11.38;6.38;;;;;;;10.01;92.55;101307.69;4914235;29;20047;-84
2022/10/10 07:59:15;;;;;;;12.13;6.43;;;;;;;10.08;92.33;101315.38;4927536;29;20032;-85
2022/10/10 08:01:41;;;;;;;15.30;7.50;;;;;;;10.17;92.17;101311.22;4946869;29;20444;-85
2022/10/10 08:04:06;;;;;;;14.65;6.70;;;;;;;10.23;91.96;101313.53;4932478;29;20403;-85
2022/10/10 08:06:32;;;;;;;14.10;6.60;;;;;;;10.25;92.03;101310.72;4932590;29;20063;-84
2022/10/10 08:08:57;;;;;;;10.52;6.55;;;;;;;10.33;92.12;101313.84;4944960;29;20036;-85
2022/10/10 08:11:23;;;;;;;11.70;6.60;;;;;;;10.43;91.33;101318.59;4932346;29;20040;-85
2022/10/10 08:13:49;;;;;;;14.77;7.43;;;;;;;10.51;91.00;101320.81;4929713;29;20038;-85
2022/10/10 08:16:14;;;;;;;14.20;7.30;;;;;;;10.57;90.70;101304.09;4897957;29;20058;-84
2022/10/10 08:18:40;;;;;;;14.18;7.05;;;;;;;10.64;90.65;101310.91;4927006;29;20035;-84
2022/10/10 08:21:09;;;;;;;12.52;6.70;;;;;;;10.71;90.15;101306.78;4932307;29;20488;-85
2022/10/10 08:23:35;;;;;;;14.13;6.75;;;;;;;10.76;90.22;101306.47;4932777;29;20024;-85
2022/10/10 08:26:03;;;;;;;13.82;6.88;;;;;;;10.82;90.29;101307.91;4916187;29;20460;-85
2022/10/10 08:28:28;;;;;;;10.43;6.63;;;;;;;10.85;89.83;101316.75;4915331;29;20486;-85
2022/10/10 08:30:54;;;;;;;15.02;7.45;;;;;;;10.93;90.12;101321.72;4927825;29;20036;-85
2022/10/10 08:33:20;;;;;;;11.70;6.78;;;;;;;10.93;89.83;101314.41;4913546;29;20410;-84
2022/10/10 08:35:45;;;;;;;9.80;6.63;;;;;;;11.03;90.17;101321.97;4913296;29;20048;-84
2022/10/10 08:38:12;;;;;;;13.07;7.50;;;;;;;11.13;89.63;101317.66;4903727;29;20502;-85
2022/10/10 08:40:46;;;;;;;13.32;7.35;;;;;;;11.20;90.09;101313.56;4931699;29;20138;-85
2022/10/10 08:43:36;;;;;;;10.88;6.90;;;;;;;11.37;89.32;101317.84;4931282;29;20459;-84
2022/10/10 08:46:12;;;;;;;13.18;6.50;;;;;;;11.50;89.47;101316.03;4912963;29;20555;-85
2022/10/10 08:48:39;;;;;;;11.70;6.28;;;;;;;11.63;88.71;101316.06;4898170;29;20476;-84
2022/10/10 08:51:10;;;;;;;10.55;6.30;;;;;;;11.75;88.56;101317.94;4939512;29;20039;-85
2022/10/10 08:53:47;;;;;;;14.65;6.80;;;;;;;11.90;88.41;101321.47;4913178;29;20066;-85
2022/10/10 08:56:16;;;;;;;16.27;7.65;;;;;;;12.01;87.41;101318.84;4927699;29;20040;-85
2022/10/10 08:58:48;;;;;;;12.43;6.55;;;;;;;12.19;87.49;101324.84;4915862;29;20413;-85
2022/10/10 09:01:19;;;;;;;9.90;5.90;;;;;;;12.33;86.99;101302.91;4914252;29;20043;-84
2022/10/10 09:03:53;;;;;;;11.32;6.55;;;;;;;12.51;86.32;101314.34;4929949;29;20516;-85
2022/10/10 09:06:54;;;;;;;16.58;7.05;;;;;;;12.65;86.05;101316.94;4912881;29;20049;-84
2022/10/10 09:09:23;;;;;;;14.48;6.07;;;;;;;12.85;85.93;101318.16;4912710;29;20051;-84
2022/10/10 09:12:14;;;;;;;9.57;6.05;;;;;;;12.93;85.01;101314.88;4944403;29;20181;-85
2022/10/10 09:15:02;;;;;;;8.73;6.38;;;;;;;13.04;84.53;101317.66;4922446;29;20039;-85
2022/10/10 09:17:41;;;;;;;13.25;6.13;;;;;;;13.15;83.54;101320.47;4929241;29;20052;-84
2022/10/10 09:20:33;;;;;;;8.90;5.22;;;;;;;13.29;82.95;101333.13;4912590;29;20079;-84
2022/10/10 09:23:11;;;;;;;8.33;4.97;;;;;;;13.37;81.93;101333.38;4929667;29;20541;-84
2022/10/10 09:25:42;;;;;;;12.40;5.18;;;;;;;13.47;82.54;101334.41;4914465;29;20309;-85
2022/10/10 09:28:53;;;;;;;10.02;5.75;;;;;;;13.60;82.95;101330.75;4932202;29;20118;-84
2022/10/10 09:31:30;;;;;;;9.75;5.45;;;;;;;13.75;83.35;101335.03;4896154;29;20048;-85
2022/10/10 09:34:04;;;;;;;11.85;5.20;;;;;;;13.95;83.45;101345.28;4926887;29;20380;-85
2022/10/10 09:36:34;;;;;;;9.25;5.30;;;;;;;14.12;82.98;101343.94;4947369;29;20062;-85
2022/10/10 09:39:15;;;;;;;12.45;5.25;;;;;;;14.32;81.54;101345.09;4915546;29;20057;-85
2022/10/10 09:41:54;;;;;;;16.40;5.57;;;;;;;14.47;81.54;101349.34;4929755;29;20036;-84
2022/10/10 09:44:20;;;;;;;10.57;4.95;;;;;;;14.59;80.34;101349.34;4926289;29;20047;-84
2022/10/10 09:46:46;;;;;;;8.02;4.55;;;;;;;14.73;79.71;101351.84;4946637;29;20090;-85
2022/10/10 09:49:17;;;;;;;11.55;5.05;;;;;;;14.85;77.51;101359.06;4931296;29;20427;-85
2022/10/10 09:51:44;;;;;;;15.18;5.20;;;;;;;14.96;76.49;101360.91;4932603;29;20126;-85
2022/10/10 09:54:13;;;;;;;9.77;5.25;;;;;;;15.05;77.62;101360.16;4927021;29;20496;-85
2022/10/10 09:56:53;;;;;;;8.85;4.82;;;;;;;15.11;74.97;101359.66;4944448;29;20031;-84
2022/10/10 09:59:39;;;;;;;7.28;4.22;;;;;;;15.14;76.60;101370.34;4911647;29;20127;-85
2022/10/10 10:02:20;;;;;;;9.65;4.53;;;;;;;15.16;76.33;101367.50;4911559;29;20056;-85
2022/10/10 10:04:47;;;;;;;9.90;4.22;;;;;;;15.18;76.52;101370.97;4927836;29;20487;-85
2022/10/10 10:07:22;;;;;;;9.02;4.10;;;;;;;15.18;76.29;101363.63;4911074;29;20028;-85
2022/10/10 10:09:53;;;;;;;6.80;4.20;;;;;;;15.20;76.34;101364.38;4915838;29;20086;-86
2022/10/10 10:12:38;;;;;;;14.70;4.93;;;;;;;15.29;76.09;101363.59;4939037;29;20685;-85
2022/10/10 10:15:15;;;;;;;9.82;4.63;;;;;;;15.41;76.33;101371.78;4920293;29;20048;-85
2022/10/10 10:17:41;;;;;;;10.45;5.03;;;;;;;15.48;76.98;101368.41;4928699;29;20495;-85
2022/10/10 10:20:28;;;;;;;7.43;4.50;;;;;;;15.55;77.12;101366.00;4910380;29;20079;-85
2022/10/10 10:22:55;;;;;;;18.00;5.88;;;;;;;15.55;74.59;101366.88;4913167;29;20122;-85
2022/10/10 10:25:32;;;;;;;10.30;5.35;;;;;;;15.58;73.61;101373.97;4922980;29;20039;-85
2022/10/10 10:28:10;;;;;;;10.48;4.50;;;;;;;15.70;75.98;101381.16;4929759;29;20165;-85
2022/10/10 10:30:37;;;;;;;5.93;4.90;;;;;;;15.76;75.47;101377.03;4942906;29;20461;-85
2022/10/10 10:33:33;;;;;;;11.43;4.63;;;;;;;15.77;75.42;101367.81;4946537;29;20439;-85
2022/10/10 10:36:38;;;;;;;11.65;4.45;;;;;;;15.92;75.65;101371.09;4929973;29;20515;-85
2022/10/10 10:39:24;;;;;;;13.52;4.88;;;;;;;16.07;75.28;101378.84;4917725;29;20052;-85
2022/10/10 10:42:04;;;;;;;14.30;4.72;;;;;;;16.22;73.03;101376.63;4895888;29;20044;-86
2022/10/10 10:44:39;;;;;;;10.80;5.18;;;;;;;16.29;72.59;101382.47;4934496;29;20066;-85
2022/10/10 10:47:24;;;;;;;7.88;4.75;;;;;;;16.44;72.35;101385.75;4929821;29;20156;-85
2022/10/10 10:50:25;;;;;;;12.13;4.90;;;;;;;16.49;73.66;101392.56;4928711;29;20039;-85
2022/10/10 10:53:17;;;;;;;15.70;5.50;;;;;;;16.54;72.80;101395.78;4899403;29;20058;-85
2022/10/10 10:55:57;;;;;;;9.82;4.97;;;;;;;16.62;72.41;101397.84;4932413;29;20037;-85
2022/10/10 10:58:32;;;;;;;11.32;4.47;;;;;;;16.79;72.39;101402.75;4921832;29;20095;-86
2022/10/10 11:01:01;;;;;;;14.00;5.00;;;;;;;16.99;72.00;101405.56;4949428;29;20031;-85
2022/10/10 11:03:50;;;;;;;11.90;4.80;;;;;;;17.23;72.66;101396.94;4917857;29;20058;-85
2022/10/10 11:06:34;;;;;;;11.38;4.45;;;;;;;17.33;69.69;101414.34;4933545;29;20036;-85
2022/10/10 11:09:15;;;;;;;9.65;4.32;;;;;;;17.37;70.46;101414.94;4934659;29;20074;-84
2022/10/10 11:12:04;;;;;;;9.70;4.18;;;;;;;17.38;69.84;101411.16;4917964;29;20127;-85
2022/10/10 11:14:51;;;;;;;10.90;4.35;;;;;;;17.36;69.34;101413.22;4943757;29;20048;-86
2022/10/10 11:17:27;;;;;;;9.52;4.07;;;;;;;17.30;68.84;101420.16;4948689;29;20444;-85
2022/10/10 11:20:21;;;;;;;15.13;4.22;;;;;;;17.30;69.57;101418.25;4930121;29;20042;-85
2022/10/10 11:22:55;;;;;;;7.90;3.78;;;;;;;17.48;68.30;101426.66;4915974;29;20040;-85
2022/10/10 11:25:41;;;;;;;12.75;4.72;;;;;;;17.65;70.05;101432.50;4917657;29;20052;-85
2022/10/10 11:28:34;;;;;;;8.90;4.22;;;;;;;17.74;68.83;101429.81;4926028;29;20122;-86
2022/10/10 11:31:19;;;;;;;8.10;4.15;;;;;;;17.97;67.92;101413.00;4934030;29;20043;-86
2022/10/10 11:33:50;;;;;;;15.30;4.40;;;;;;;18.13;68.41;101415.16;4934429;29;20039;-86
2022/10/10 11:36:23;;;;;;;13.38;4.22;;;;;;;18.30;66.15;101418.03;4933539;29;20043;-84
2022/10/10 11:38:57;;;;;;;8.30;4.55;;;;;;;18.54;66.93;101412.03;4932959;29;20080;-85
2022/10/10 11:41:27;;;;;;;8.02;3.97;;;;;;;18.83;65.65;101406.47;4913482;29;20036;-86